Time,TemperatureF,DewpointF,PressureIn,WindDirection,WindDirectionDegrees,WindSpeedMPH,WindSpeedGustMPH,Humidity,HourlyPrecipIn,Conditions,Clouds,dailyrainin,SolarRadiationWatts/m^2,SoftwareType,DateUTC
2013-02-26 00:01:00,22.0,13.0,-100.00,SSE,168,5.0,8.0,66,-99.99,,,0.00,0.120000,,2013-02-26 07:01:00,
2013-02-26 00:11:00,22.0,13.0,-100.00,SSE,168,5.0,8.0,66,-99.99,,,0.00,0.120000,,2013-02-26 07:11:00,
2013-02-26 00:41:00,22.0,12.0,-100.00,NW,323,2.0,7.0,66,-99.99,,,0.00,0.120000,,2013-02-26 07:41:00,
2013-02-26 00:52:00,22.0,12.0,-100.00,NW,323,2.0,7.0,66,-99.99,,,0.00,0.120000,,2013-02-26 07:52:00,
2013-02-26 01:01:00,22.0,12.0,-100.00,NW,323,2.0,7.0,66,-99.99,,,0.00,0.120000,,2013-02-26 08:01:00,
2013-02-26 01:11:00,22.0,12.0,-100.00,NW,323,2.0,7.0,66,-99.99,,,0.00,0.120000,,2013-02-26 08:11:00,
2013-02-26 01:41:00,24.0,12.0,-100.00,South,179,2.0,6.0,60,-99.99,,,-99.99,0.120000,,2013-02-26 08:41:00,
2013-02-26 01:52:00,24.0,12.0,-100.00,South,179,2.0,6.0,60,-99.99,,,-99.99,0.120000,,2013-02-26 08:52:00,
2013-02-26 02:01:00,24.0,12.0,-100.00,South,179,2.0,6.0,60,-99.99,,,-99.99,0.120000,,2013-02-26 09:01:00,
2013-02-26 02:11:00,24.0,12.0,-100.00,South,179,2.0,6.0,60,-99.99,,,-99.99,0.120000,,2013-02-26 09:11:00,
2013-02-26 02:43:00,22.0,13.0,-100.00,ESE,117,4.0,8.0,67,-99.99,,,0.00,0.120000,,2013-02-26 09:43:00,
2013-02-26 02:52:00,22.0,13.0,-100.00,ESE,117,4.0,8.0,67,-99.99,,,0.00,0.120000,,2013-02-26 09:52:00,
2013-02-26 03:01:00,22.0,13.0,-100.00,ESE,117,4.0,8.0,67,-99.99,,,0.00,0.120000,,2013-02-26 10:01:00,
2013-02-26 03:11:00,22.0,13.0,-100.00,ESE,117,4.0,8.0,67,-99.99,,,0.00,0.120000,,2013-02-26 10:11:00,
2013-02-26 03:41:00,22.0,12.0,-100.00,SE,142,2.0,5.0,64,-99.99,,,0.00,0.120000,,2013-02-26 10:41:00,
2013-02-26 03:52:00,22.0,12.0,-100.00,SE,142,2.0,5.0,64,-99.99,,,0.00,0.120000,,2013-02-26 10:52:00,
2013-02-26 04:01:00,22.0,12.0,-100.00,SE,142,2.0,5.0,64,-99.99,,,0.00,0.120000,,2013-02-26 11:01:00,
2013-02-26 04:11:00,22.0,12.0,-100.00,SE,142,2.0,5.0,64,-99.99,,,0.00,0.120000,,2013-02-26 11:11:00,
2013-02-26 04:41:00,20.0,13.0,-100.00,NNE,19,4.0,7.0,72,-99.99,,,0.00,0.120000,,2013-02-26 11:41:00,
2013-02-26 04:52:00,20.0,13.0,-100.00,NNE,19,4.0,7.0,72,-99.99,,,0.00,0.120000,,2013-02-26 11:52:00,
2013-02-26 05:01:00,20.0,13.0,-100.00,NNE,19,4.0,7.0,72,-99.99,,,0.00,0.120000,,2013-02-26 12:01:00,
2013-02-26 05:11:00,20.0,13.0,-100.00,NNE,19,4.0,7.0,72,-99.99,,,0.00,0.120000,,2013-02-26 12:11:00,
2013-02-26 05:42:00,23.0,14.0,-100.00,West,274,2.0,7.0,67,-99.99,,,0.00,0.120000,,2013-02-26 12:42:00,
2013-02-26 05:53:00,23.0,14.0,-100.00,West,274,2.0,7.0,67,-99.99,,,0.00,0.120000,,2013-02-26 12:53:00,
2013-02-26 06:01:00,23.0,14.0,-100.00,West,274,2.0,7.0,67,-99.99,,,0.00,0.120000,,2013-02-26 13:01:00,
2013-02-26 06:11:00,23.0,14.0,-100.00,West,274,2.0,7.0,67,-99.99,,,0.00,0.120000,,2013-02-26 13:11:00,
2013-02-26 06:42:00,21.0,14.0,-100.00,East,81,2.0,4.0,74,-99.99,,,0.00,0.120000,,2013-02-26 13:42:00,
2013-02-26 06:52:00,21.0,14.0,-100.00,East,81,2.0,4.0,74,-99.99,,,0.00,0.120000,,2013-02-26 13:52:00,
2013-02-26 07:01:00,21.0,14.0,-100.00,East,81,2.0,4.0,74,-99.99,,,0.00,0.120000,,2013-02-26 14:01:00,
2013-02-26 07:11:00,21.0,14.0,-100.00,East,81,2.0,4.0,74,-99.99,,,0.00,0.120000,,2013-02-26 14:11:00,
2013-02-26 07:42:00,21.0,15.0,-100.00,North,349,1.0,3.0,77,-99.99,,,0.00,0.930000,,2013-02-26 14:42:00,
2013-02-26 07:52:00,21.0,15.0,-100.00,North,349,1.0,3.0,77,-99.99,,,0.00,0.930000,,2013-02-26 14:52:00,
2013-02-26 08:01:00,21.0,15.0,-100.00,North,349,1.0,3.0,77,-99.99,,,0.00,0.930000,,2013-02-26 15:01:00,
2013-02-26 08:11:00,21.0,15.0,-100.00,North,349,1.0,3.0,77,-99.99,,,0.00,0.930000,,2013-02-26 15:11:00,
2013-02-26 08:41:00,24.0,18.0,-100.00,NNE,25,1.0,4.0,77,-99.99,,,0.00,34.750000,,2013-02-26 15:41:00,
2013-02-26 08:52:00,24.0,18.0,-100.00,NNE,25,1.0,4.0,77,-99.99,,,0.00,34.750000,,2013-02-26 15:52:00,
2013-02-26 09:01:00,24.0,18.0,-100.00,NNE,25,1.0,4.0,77,-99.99,,,0.00,34.750000,,2013-02-26 16:01:00,
2013-02-26 09:11:00,24.0,18.0,-100.00,NNE,25,1.0,4.0,77,-99.99,,,0.00,34.750000,,2013-02-26 16:11:00,
2013-02-26 09:42:00,26.0,20.0,-100.00,WNW,294,2.0,5.0,76,-99.99,,,0.00,138.190002,,2013-02-26 16:42:00,
2013-02-26 09:52:00,26.0,20.0,-100.00,WNW,294,2.0,5.0,76,-99.99,,,0.00,138.190002,,2013-02-26 16:52:00,
2013-02-26 10:01:00,26.0,20.0,-100.00,WNW,294,2.0,5.0,76,-99.99,,,0.00,138.190002,,2013-02-26 17:01:00,
2013-02-26 10:11:00,26.0,20.0,-100.00,WNW,294,2.0,5.0,76,-99.99,,,0.00,138.190002,,2013-02-26 17:11:00,
2013-02-26 10:41:00,29.0,18.0,-100.00,NE,39,4.0,7.0,62,-99.99,,,0.00,266.029999,,2013-02-26 17:41:00,
2013-02-26 10:52:00,29.0,18.0,-100.00,NE,39,4.0,7.0,62,-99.99,,,0.00,266.029999,,2013-02-26 17:52:00,
2013-02-26 11:01:00,29.0,18.0,-100.00,NE,39,4.0,7.0,62,-99.99,,,0.00,266.029999,,2013-02-26 18:01:00,
2013-02-26 11:12:00,29.0,18.0,-100.00,NE,39,4.0,7.0,62,-99.99,,,0.00,266.029999,,2013-02-26 18:12:00,
2013-02-26 11:42:00,31.0,16.0,-100.00,ENE,69,5.0,10.0,52,-99.99,,,0.00,480.450012,,2013-02-26 18:42:00,
2013-02-26 11:52:00,31.0,16.0,-100.00,ENE,69,5.0,10.0,52,-99.99,,,0.00,480.450012,,2013-02-26 18:52:00,
2013-02-26 12:01:00,31.0,16.0,-100.00,ENE,69,5.0,10.0,52,-99.99,,,0.00,480.450012,,2013-02-26 19:01:00,
2013-02-26 12:11:00,31.0,16.0,-100.00,ENE,69,5.0,10.0,52,-99.99,,,0.00,480.450012,,2013-02-26 19:11:00,
2013-02-26 12:41:00,32.0,15.0,-100.00,ENE,76,4.0,7.0,49,-99.99,,,0.00,290.200012,,2013-02-26 19:41:00,
2013-02-26 12:52:00,32.0,15.0,-100.00,ENE,76,4.0,7.0,49,-99.99,,,0.00,290.200012,,2013-02-26 19:52:00,
2013-02-26 13:01:00,32.0,15.0,-100.00,ENE,76,4.0,7.0,49,-99.99,,,0.00,290.200012,,2013-02-26 20:01:00,
2013-02-26 13:11:00,32.0,15.0,-100.00,ENE,76,4.0,7.0,49,-99.99,,,0.00,290.200012,,2013-02-26 20:11:00,
2013-02-26 15:41:00,32.0,14.0,-100.00,North,5,14.0,20.0,47,-99.99,,,0.00,174.789993,,2013-02-26 22:41:00,
2013-02-26 15:52:00,32.0,14.0,-100.00,North,5,14.0,20.0,47,-99.99,,,0.00,174.789993,,2013-02-26 22:52:00,
2013-02-26 16:01:00,32.0,14.0,-100.00,North,5,14.0,20.0,47,-99.99,,,0.00,174.789993,,2013-02-26 23:01:00,
2013-02-26 16:11:00,32.0,14.0,-100.00,North,5,14.0,20.0,47,-99.99,,,0.00,174.789993,,2013-02-26 23:11:00,
2013-02-26 16:41:00,32.0,14.0,-100.00,NNE,13,9.0,15.0,46,-99.99,,,0.00,107.620003,,2013-02-26 23:41:00,
2013-02-26 16:52:00,32.0,14.0,-100.00,NNE,13,9.0,15.0,46,-99.99,,,0.00,107.620003,,2013-02-26 23:52:00,
2013-02-26 17:01:00,32.0,14.0,-100.00,NNE,13,9.0,15.0,46,-99.99,,,0.00,107.620003,,2013-02-27 00:01:00,
2013-02-26 17:11:00,32.0,14.0,-100.00,NNE,13,9.0,15.0,46,-99.99,,,0.00,107.620003,,2013-02-27 00:11:00,
2013-02-26 17:41:00,32.0,14.0,-100.00,NNE,12,8.0,14.0,47,-99.99,,,0.00,114.360001,,2013-02-27 00:41:00,
2013-02-26 17:52:00,32.0,14.0,-100.00,NNE,12,8.0,14.0,47,-99.99,,,0.00,114.360001,,2013-02-27 00:52:00,
2013-02-26 18:01:00,32.0,14.0,-100.00,NNE,12,8.0,14.0,47,-99.99,,,0.00,114.360001,,2013-02-27 01:01:00,
2013-02-26 18:11:00,32.0,14.0,-100.00,NNE,12,8.0,14.0,47,-99.99,,,0.00,114.360001,,2013-02-27 01:11:00,
2013-02-26 18:41:00,30.0,15.0,-100.00,North,358,10.0,16.0,52,-99.99,,,0.00,3.490000,,2013-02-27 01:41:00,
2013-02-26 18:52:00,30.0,15.0,-100.00,North,358,10.0,16.0,52,-99.99,,,0.00,3.490000,,2013-02-27 01:52:00,
2013-02-26 19:01:00,30.0,15.0,-100.00,North,358,10.0,16.0,52,-99.99,,,0.00,3.490000,,2013-02-27 02:01:00,
2013-02-26 19:13:00,30.0,15.0,-100.00,North,358,10.0,16.0,52,-99.99,,,0.00,3.490000,,2013-02-27 02:13:00,
2013-02-26 19:42:00,29.0,15.0,-100.00,NNW,333,9.0,13.0,56,-99.99,,,0.00,0.120000,,2013-02-27 02:42:00,
2013-02-26 19:52:00,29.0,15.0,-100.00,NNW,333,9.0,13.0,56,-99.99,,,0.00,0.120000,,2013-02-27 02:52:00,
2013-02-26 20:01:00,29.0,15.0,-100.00,NNW,333,9.0,13.0,56,-99.99,,,0.00,0.120000,,2013-02-27 03:01:00,
2013-02-26 20:11:00,29.0,15.0,-100.00,NNW,333,9.0,13.0,56,-99.99,,,0.00,0.120000,,2013-02-27 03:11:00,
2013-02-26 20:41:00,28.0,16.0,-100.00,NNW,327,6.0,10.0,59,-99.99,,,0.00,0.120000,,2013-02-27 03:41:00,
2013-02-26 20:52:00,28.0,16.0,-100.00,NNW,327,6.0,10.0,59,-99.99,,,0.00,0.120000,,2013-02-27 03:52:00,
2013-02-26 21:01:00,28.0,16.0,-100.00,NNW,327,6.0,10.0,59,-99.99,,,0.00,0.120000,,2013-02-27 04:01:00,
2013-02-26 21:11:00,28.0,16.0,-100.00,NNW,327,6.0,10.0,59,-99.99,,,0.00,0.120000,,2013-02-27 04:11:00,
2013-02-26 21:41:00,28.0,16.0,-100.00,NNW,339,5.0,13.0,60,-99.99,,,0.00,0.120000,,2013-02-27 04:41:00,
2013-02-26 21:52:00,28.0,16.0,-100.00,NNW,339,5.0,13.0,60,-99.99,,,0.00,0.120000,,2013-02-27 04:52:00,
2013-02-26 22:01:00,28.0,16.0,-100.00,NNW,339,5.0,13.0,60,-99.99,,,0.00,0.120000,,2013-02-27 05:01:00,
2013-02-26 22:11:00,28.0,16.0,-100.00,NNW,339,5.0,13.0,60,-99.99,,,0.00,0.120000,,2013-02-27 05:11:00,
2013-02-26 22:41:00,26.0,16.0,-100.00,East,84,3.0,5.0,64,-99.99,,,0.00,0.120000,,2013-02-27 05:41:00,
2013-02-26 22:52:00,26.0,16.0,-100.00,East,84,3.0,5.0,64,-99.99,,,0.00,0.120000,,2013-02-27 05:52:00,
2013-02-26 23:02:00,26.0,16.0,-100.00,East,84,3.0,5.0,64,-99.99,,,0.00,0.120000,,2013-02-27 06:02:00,
2013-02-26 23:11:00,26.0,16.0,-100.00,East,84,3.0,5.0,64,-99.99,,,0.00,0.120000,,2013-02-27 06:11:00,
2013-02-26 23:41:00,21.0,14.0,-100.00,SE,141,4.0,6.0,73,-99.99,,,-99.99,0.120000,,2013-02-27 06:41:00,
2013-02-26 23:52:00,21.0,14.0,-100.00,SE,141,4.0,6.0,73,-99.99,,,-99.99,0.120000,,2013-02-27 06:52:00,